KMMK 151853Z AUTO 17006KT 10SM OVC080 08/04 A2967 RMK AO2 SLP050 T00830044